This is the latest recevied weather packets stored in our database for station/object KMEZ. If no packets are shown the sender has not sent any weather packets the latest 10 day(s).
| Time | Temp. | Humidity | Pressure | Rain* | Wind** | Luminosity | Snow |
|---|---|---|---|---|---|---|---|
| 1777830820 | 22.78° C | 40% | 1019.3 hPa | - | - | - | - |
| 1777830216 | 22.78° C | 40% | 1019.3 hPa | - | - | - | - |
| 1777829617 | 21.67° C | 43% | 1019.3 hPa | - | - | - | - |
| 1777829015 | 21.67° C | 43% | 1019.3 hPa | - | - | - | - |
| 1777828416 | 21.67° C | 40% | 1019.6 hPa | - | - | - | - |
| 1777827818 | 21.67° C | 40% | 1019.6 hPa | - | - | - | - |
| 1777827222 | 20.56° C | 43% | 1020 hPa | - | - | - | - |
| 1777826619 | 20.56° C | 43% | 1020 hPa | - | - | - | - |
| 1777826022 | 20.56° C | 40% | 1020.3 hPa | - | - | - | - |
| 1777825421 | 20.56° C | 40% | 1020.3 hPa | - | - | - | - |
| 1777824820 | 20° C | 40% | 1020.3 hPa | - | - | - | - |
| 1777824224 | 20° C | 40% | 1020.3 hPa | - | - | - | - |
| 1777823622 | 20° C | 40% | 1020.7 hPa | - | - | - | - |
| 1777823022 | 20° C | 40% | 1020.7 hPa | - | - | - | - |
| 1777822421 | 18.89° C | 39% | 1020.7 hPa | - | - | - | - |
| 1777821822 | 18.89° C | 39% | 1020.7 hPa | - | - | - | - |
| 1777821220 | 17.78° C | 52% | 1020.7 hPa | - | - | - | - |
| 1777820621 | 17.78° C | 52% | 1020.7 hPa | - | - | - | - |
| 1777820022 | 15.56° C | 63% | 1021 hPa | - | - | - | - |
| 1777819422 | 15.56° C | 63% | 1021 hPa | - | - | - | - |
| 1777818819 | 15° C | 58% | 1021 hPa | - | - | - | - |
| 1777818218 | 15° C | 58% | 1021 hPa | - | - | - | - |
| 1777817614 | 12.78° C | 71% | 1021 hPa | - | - | - | - |
| 1777817017 | 12.78° C | 71% | 1021 hPa | - | - | - | - |
| 1777816425 | 10.56° C | 81% | 1021 hPa | - | - | - | - |
* Rain since midnight (hover to see other rain measurements)
** Current wind speed in m/s (hover to see current wind gust speed)